createdAt,value
2019-01-19T00:02:02.299Z,99.90
2019-01-19T00:05:00.262Z,99.90
2019-01-19T00:08:14.300Z,99.90
2019-01-19T00:11:11.431Z,99.90
2019-01-19T00:14:15.467Z,99.90
2019-01-19T00:17:23.098Z,99.90
2019-01-19T00:20:06.715Z,99.90
2019-01-19T00:23:05.066Z,99.90
2019-01-19T00:26:09.586Z,99.90
2019-01-19T00:28:51.310Z,99.90
2019-01-19T00:31:33.095Z,99.90
2019-01-19T00:34:42.838Z,99.90
2019-01-19T00:37:48.278Z,99.90
2019-01-19T00:40:45.483Z,99.90
2019-01-19T00:43:34.903Z,99.90
2019-01-19T00:47:05.043Z,99.90
2019-01-19T00:50:03.379Z,99.90
2019-01-19T00:52:38.256Z,99.90
2019-01-19T00:55:37.836Z,99.90
2019-01-19T00:58:33.714Z,99.90
2019-01-19T01:01:08.683Z,99.90
2019-01-19T01:04:16.023Z,99.90
2019-01-19T01:07:25.571Z,99.90
2019-01-19T01:10:05.306Z,99.90
2019-01-19T01:13:04.571Z,99.90
2019-01-19T01:15:44.778Z,99.90
2019-01-19T01:18:22.351Z,99.90
2019-01-19T01:21:12.747Z,99.90
2019-01-19T01:24:07.691Z,99.90
2019-01-19T01:27:10.524Z,99.90
2019-01-19T01:30:18.054Z,99.90
2019-01-19T01:33:23.654Z,99.90
2019-01-19T01:36:50.400Z,99.90
2019-01-19T01:39:55.691Z,99.90
2019-01-19T01:43:02.888Z,99.90
2019-01-19T01:46:05.345Z,99.90
2019-01-19T01:49:01.770Z,99.90
2019-01-19T01:51:55.983Z,99.90
2019-01-19T01:54:30.559Z,99.90
2019-01-19T01:57:02.855Z,99.90
2019-01-19T01:59:55.976Z,99.90
2019-01-19T02:02:35.143Z,99.90
2019-01-19T02:05:40.210Z,99.90
2019-01-19T02:08:26.095Z,99.90
2019-01-19T02:11:37.659Z,99.90
2019-01-19T02:14:26.287Z,99.90
2019-01-19T02:17:50.136Z,99.90
2019-01-19T02:21:02.531Z,99.90
2019-01-19T02:24:22.843Z,99.90
2019-01-19T02:27:07.351Z,99.90
2019-01-19T02:30:25.256Z,99.90
2019-01-19T02:33:31.403Z,99.90
2019-01-19T02:36:42.503Z,99.90
2019-01-19T02:39:32.506Z,99.90
2019-01-19T02:42:09.979Z,99.90
2019-01-19T02:45:13.820Z,99.90
2019-01-19T02:48:21.480Z,99.90
2019-01-19T02:51:03.095Z,99.90
2019-01-19T02:54:16.603Z,99.90
2019-01-19T02:57:10.170Z,99.90
2019-01-19T03:00:32.751Z,99.90
2019-01-19T03:03:41.090Z,99.90
2019-01-19T03:06:33.472Z,99.90
2019-01-19T03:09:28.411Z,99.90
2019-01-19T03:12:25.875Z,99.90
2019-01-19T03:15:15.211Z,99.90
2019-01-19T03:18:22.624Z,99.90
2019-01-19T03:21:15.961Z,99.90
2019-01-19T03:24:09.244Z,99.90
2019-01-19T03:27:15.072Z,99.90
2019-01-19T03:30:19.984Z,99.90
2019-01-19T03:33:27.809Z,99.90
2019-01-19T03:36:18.236Z,99.90
2019-01-19T03:39:08.607Z,99.90
2019-01-19T03:42:03.724Z,99.90
2019-01-19T03:44:51.003Z,99.90
2019-01-19T03:47:48.335Z,99.90
2019-01-19T03:51:24.826Z,99.90
2019-01-19T03:54:27.215Z,99.90
2019-01-19T03:57:37.930Z,99.90
2019-01-19T04:00:17.785Z,99.90
2019-01-19T04:03:10.335Z,99.90
2019-01-19T04:05:59.603Z,99.90
2019-01-19T04:08:54.117Z,99.90
2019-01-19T04:11:53.980Z,99.90
2019-01-19T04:14:33.358Z,99.90
2019-01-19T04:17:36.259Z,99.90
2019-01-19T04:20:30.234Z,99.90
2019-01-19T04:23:00.939Z,99.90
2019-01-19T04:25:44.368Z,99.90
2019-01-19T04:28:12.424Z,99.90
2019-01-19T04:30:39.267Z,99.90
2019-01-19T04:33:06.143Z,99.90
2019-01-19T04:35:32.971Z,99.90
2019-01-19T04:37:59.807Z,99.90
2019-01-19T04:40:26.667Z,99.90
2019-01-19T04:42:53.813Z,99.90
2019-01-19T04:45:20.799Z,99.90
2019-01-19T04:47:47.596Z,99.90
2019-01-19T04:50:14.372Z,99.90
2019-01-19T04:52:41.243Z,99.90
2019-01-19T04:55:08.304Z,99.90
2019-01-19T04:57:35.238Z,99.90
2019-01-19T05:00:03.699Z,99.90
2019-01-19T05:02:30.731Z,99.90
2019-01-19T05:04:57.571Z,99.90
2019-01-19T05:07:24.308Z,99.90
2019-01-19T05:09:51.007Z,99.90
2019-01-19T05:12:17.881Z,99.90
2019-01-19T05:14:44.652Z,99.90
2019-01-19T05:17:11.516Z,99.90
2019-01-19T05:19:38.344Z,99.90
2019-01-19T05:22:06.186Z,99.90
2019-01-19T05:24:33.044Z,99.90
2019-01-19T05:26:59.751Z,99.90
2019-01-19T05:29:26.485Z,99.90
2019-01-19T05:31:53.443Z,99.90
2019-01-19T05:34:20.343Z,99.90
2019-01-19T05:36:47.082Z,99.90
2019-01-19T05:39:14.031Z,99.90
2019-01-19T05:41:40.776Z,99.90
2019-01-19T05:44:07.626Z,99.90
2019-01-19T05:46:34.682Z,99.90
2019-01-19T05:49:01.571Z,99.90
2019-01-19T05:51:28.584Z,99.90
2019-01-19T05:53:55.311Z,99.90
2019-01-19T05:56:22.278Z,99.90
2019-01-19T05:58:49.111Z,99.90
2019-01-19T06:01:16.223Z,99.90
2019-01-19T06:03:43.099Z,99.90
2019-01-19T06:06:10.058Z,99.90
2019-01-19T06:08:36.980Z,99.90
2019-01-19T06:11:03.915Z,99.90
2019-01-19T06:13:30.759Z,99.90
2019-01-19T06:15:57.847Z,99.90
2019-01-19T06:18:24.691Z,99.90
2019-01-19T06:20:51.519Z,99.90
2019-01-19T06:23:18.402Z,99.90
2019-01-19T06:25:45.130Z,99.90
2019-01-19T06:28:12.138Z,99.90
2019-01-19T06:30:39.027Z,99.90
2019-01-19T06:33:06.471Z,99.90
2019-01-19T06:35:33.317Z,99.90
2019-01-19T06:38:00.120Z,99.90
2019-01-19T06:40:27.172Z,99.90
2019-01-19T06:42:53.897Z,99.90
2019-01-19T06:45:24.779Z,99.90
2019-01-19T06:47:51.615Z,99.90
2019-01-19T06:50:18.654Z,99.90
2019-01-19T06:52:45.711Z,99.90
2019-01-19T06:55:15.039Z,99.90
2019-01-19T06:57:42.915Z,99.90
2019-01-19T07:00:12.380Z,99.90
2019-01-19T07:02:39.267Z,99.90
2019-01-19T07:05:06.359Z,99.90
2019-01-19T07:07:33.123Z,99.90
2019-01-19T07:09:59.959Z,99.90
2019-01-19T07:12:26.695Z,99.90
2019-01-19T07:14:53.680Z,99.90
2019-01-19T07:17:20.619Z,99.90
2019-01-19T07:19:47.351Z,99.90
2019-01-19T07:22:14.338Z,99.90
2019-01-19T07:24:41.359Z,99.90
2019-01-19T07:27:08.251Z,99.90
2019-01-19T07:29:35.183Z,99.90
2019-01-19T07:32:01.938Z,99.90
2019-01-19T07:34:28.835Z,99.90
2019-01-19T07:36:55.846Z,99.90
2019-01-19T07:39:22.837Z,99.90
2019-01-19T07:41:49.592Z,99.90
2019-01-19T07:44:16.331Z,99.90
2019-01-19T07:46:43.491Z,99.90
2019-01-19T07:49:10.399Z,99.90
2019-01-19T07:51:37.129Z,99.90
2019-01-19T07:54:03.979Z,99.80
2019-01-19T07:56:30.840Z,99.10
2019-01-19T07:58:57.702Z,98.80
2019-01-19T08:01:24.550Z,98.80
2019-01-19T08:03:51.551Z,98.30
2019-01-19T08:06:18.531Z,98.20
2019-01-19T08:08:45.383Z,98.10
2019-01-19T08:11:12.363Z,98.20
2019-01-19T08:13:39.227Z,98.20
2019-01-19T08:16:06.059Z,98.50
2019-01-19T08:18:32.982Z,98.50
2019-01-19T08:20:59.847Z,98.60
2019-01-19T08:23:26.647Z,98.50
2019-01-19T08:25:53.587Z,98.70
2019-01-19T08:28:20.595Z,98.80
2019-01-19T08:30:47.371Z,98.60
2019-01-19T08:33:14.207Z,98.50
2019-01-19T08:35:42.495Z,98.60
2019-01-19T08:38:09.399Z,98.70
2019-01-19T08:40:36.340Z,98.40
2019-01-19T08:43:26.567Z,98.70
2019-01-19T08:45:53.351Z,98.50
2019-01-19T08:48:20.614Z,98.50
2019-01-19T08:50:47.605Z,98.50
2019-01-19T08:53:14.443Z,98.40
2019-01-19T08:55:41.462Z,98.50
2019-01-19T08:58:08.294Z,98.60
2019-01-19T09:00:35.232Z,98.30
2019-01-19T09:03:02.091Z,98.50
2019-01-19T09:05:29.095Z,98.20
2019-01-19T09:07:55.949Z,98.30
2019-01-19T09:10:22.892Z,98.20
2019-01-19T09:12:49.675Z,97.90
2019-01-19T09:15:16.515Z,98.10
2019-01-19T09:17:43.255Z,97.90
2019-01-19T09:20:11.671Z,97.70
2019-01-19T09:22:38.666Z,97.90
2019-01-19T09:25:06.484Z,97.70
2019-01-19T09:27:33.227Z,97.80
2019-01-19T09:30:00.096Z,97.60
2019-01-19T09:32:27.973Z,96.80
2019-01-19T09:34:54.831Z,96.70
2019-01-19T09:37:21.594Z,96.60
2019-01-19T09:39:48.509Z,96.40
2019-01-19T09:42:15.472Z,96.20
2019-01-19T09:44:42.471Z,95.40
2019-01-19T09:47:09.333Z,94.60
2019-01-19T09:49:36.182Z,94.30
2019-01-19T09:52:03.227Z,93.90
2019-01-19T09:54:30.060Z,93.70
2019-01-19T09:56:57.021Z,93.40
2019-01-19T09:59:23.859Z,93.40
2019-01-19T10:01:50.735Z,93.40
2019-01-19T10:04:17.499Z,94.00
2019-01-19T10:06:44.327Z,94.20
2019-01-19T10:09:11.295Z,94.60
2019-01-19T10:11:38.070Z,94.90
2019-01-19T10:14:05.042Z,95.50
2019-01-19T10:16:31.943Z,95.20
2019-01-19T10:18:58.775Z,95.50
2019-01-19T10:21:25.807Z,95.80
2019-01-19T10:23:52.748Z,95.70
2019-01-19T10:26:19.634Z,95.40
2019-01-19T10:28:49.018Z,95.70
2019-01-19T10:31:15.778Z,95.70
2019-01-19T10:33:42.618Z,95.40
2019-01-19T10:36:09.435Z,95.50
2019-01-19T10:38:36.178Z,95.50
2019-01-19T10:41:03.151Z,95.70
2019-01-19T10:43:29.987Z,95.60
2019-01-19T10:45:56.699Z,95.80
2019-01-19T10:48:23.659Z,95.70
2019-01-19T10:50:50.684Z,96.00
2019-01-19T10:53:17.630Z,95.80
2019-01-19T10:55:44.367Z,95.90
2019-01-19T10:58:11.118Z,96.00
2019-01-19T11:00:38.087Z,95.80
2019-01-19T11:03:05.186Z,95.30
2019-01-19T11:05:32.221Z,95.30
2019-01-19T11:08:03.480Z,95.50
2019-01-19T11:10:30.319Z,95.20
2019-01-19T11:12:57.314Z,94.70
2019-01-19T11:15:24.262Z,94.20
2019-01-19T11:17:51.141Z,93.20
2019-01-19T11:20:20.331Z,92.20
2019-01-19T11:22:47.240Z,91.80
2019-01-19T11:25:14.210Z,91.30
2019-01-19T11:27:41.043Z,89.90
2019-01-19T11:30:18.875Z,87.40
2019-01-19T11:32:45.635Z,86.10
2019-01-19T11:35:13.290Z,84.40
2019-01-19T11:37:40.254Z,81.80
2019-01-19T11:40:10.970Z,77.70
2019-01-19T11:42:37.748Z,74.50
2019-01-19T11:45:06.191Z,70.20
2019-01-19T11:47:33.151Z,67.40
2019-01-19T11:50:00.177Z,59.30
2019-01-19T11:52:26.987Z,59.60
2019-01-19T11:54:54.147Z,58.80
2019-01-19T11:57:20.895Z,57.10
2019-01-19T11:59:47.628Z,56.80
2019-01-19T12:02:14.339Z,57.60
2019-01-19T12:04:41.275Z,58.50
2019-01-19T12:07:08.035Z,58.40
2019-01-19T12:09:34.763Z,60.80
2019-01-19T12:12:01.759Z,60.90
2019-01-19T12:14:28.702Z,59.90
2019-01-19T12:16:55.423Z,56.50
2019-01-19T12:19:22.200Z,55.40
2019-01-19T12:21:49.084Z,51.70
2019-01-19T12:24:15.792Z,52.00
2019-01-19T12:26:42.659Z,50.90
2019-01-19T12:29:09.618Z,50.20
2019-01-19T12:31:36.450Z,49.00
2019-01-19T12:34:03.443Z,48.80
2019-01-19T12:36:31.934Z,48.90
2019-01-19T12:38:58.935Z,48.60
2019-01-19T12:41:25.798Z,49.10
2019-01-19T12:43:52.579Z,47.60
2019-01-19T12:46:19.493Z,46.40
2019-01-19T12:48:46.337Z,47.00
2019-01-19T12:51:13.215Z,47.70
2019-01-19T12:53:40.187Z,48.50
2019-01-19T12:56:07.047Z,47.00
2019-01-19T12:58:34.035Z,47.80
2019-01-19T13:01:01.027Z,47.70
2019-01-19T13:03:28.114Z,48.60
2019-01-19T13:06:36.054Z,51.00
2019-01-19T13:09:12.672Z,52.20
2019-01-19T13:12:21.932Z,53.40
2019-01-19T13:15:16.263Z,54.10
2019-01-19T13:18:21.976Z,53.60
2019-01-19T13:21:25.763Z,53.80
2019-01-19T13:24:02.935Z,53.80
2019-01-19T13:27:13.907Z,54.10
2019-01-19T13:30:19.863Z,53.40
2019-01-19T13:33:30.582Z,55.00
2019-01-19T13:36:27.279Z,56.60
2019-01-19T13:39:34.651Z,58.90
2019-01-19T13:42:37.378Z,60.60
2019-01-19T13:45:27.131Z,59.60
2019-01-19T13:48:54.375Z,59.50
2019-01-19T13:51:49.167Z,58.00
2019-01-19T13:54:53.334Z,58.30
2019-01-19T13:58:20.455Z,60.10
2019-01-19T14:01:40.315Z,59.90
2019-01-19T14:04:26.569Z,61.00
2019-01-19T14:07:21.230Z,60.40
2019-01-19T14:10:35.587Z,62.30
2019-01-19T14:13:43.592Z,63.10
2019-01-19T14:16:22.753Z,63.70
2019-01-19T14:19:13.341Z,65.90
2019-01-19T14:22:25.055Z,67.00
2019-01-19T14:25:18.938Z,67.50
2019-01-19T14:28:24.215Z,68.90
2019-01-19T14:31:09.301Z,72.30
2019-01-19T14:33:46.071Z,76.40
2019-01-19T14:37:09.139Z,78.20
2019-01-19T14:39:57.580Z,80.60
2019-01-19T14:43:01.867Z,82.20
2019-01-19T14:46:17.362Z,83.20
2019-01-19T14:49:23.690Z,85.60
2019-01-19T14:52:35.544Z,83.50
2019-01-19T14:55:42.112Z,84.40
2019-01-19T14:59:05.682Z,85.40
2019-01-19T15:02:06.970Z,83.90
2019-01-19T15:05:06.368Z,85.80
2019-01-19T15:08:10.315Z,87.00
2019-01-19T15:11:37.427Z,86.70
2019-01-19T15:14:28.339Z,86.80
2019-01-19T15:17:35.772Z,87.10
2019-01-19T15:20:36.862Z,87.10
2019-01-19T15:23:54.168Z,87.60
2019-01-19T15:26:45.171Z,86.40
2019-01-19T15:29:56.647Z,87.60
2019-01-19T15:32:55.919Z,87.90
2019-01-19T15:36:16.591Z,88.50
2019-01-19T15:39:14.176Z,90.10
2019-01-19T15:42:20.825Z,90.40
2019-01-19T15:45:26.667Z,90.40
2019-01-19T15:48:36.010Z,90.70
2019-01-19T15:51:49.795Z,91.50
2019-01-19T15:54:56.979Z,91.10
2019-01-19T15:57:49.021Z,91.20
2019-01-19T16:00:31.375Z,91.80
2019-01-19T16:03:30.851Z,92.20
2019-01-19T16:06:26.596Z,92.10
2019-01-19T16:09:34.530Z,92.50
2019-01-19T16:12:45.988Z,92.50
2019-01-19T16:15:21.955Z,92.40
2019-01-19T16:18:19.306Z,92.70
2019-01-19T16:21:02.771Z,93.00
2019-01-19T16:23:59.347Z,92.60
2019-01-19T16:27:10.857Z,92.90
2019-01-19T16:30:32.039Z,93.40
2019-01-19T16:33:24.645Z,93.20
2019-01-19T16:36:39.285Z,93.10
2019-01-19T16:39:25.501Z,93.20
2019-01-19T16:42:33.207Z,93.00
2019-01-19T16:45:36.698Z,93.30
2019-01-19T16:48:32.143Z,93.40
2019-01-19T16:51:21.623Z,93.60
2019-01-19T16:54:06.563Z,93.40
2019-01-19T16:57:11.676Z,93.60
2019-01-19T17:00:06.267Z,94.00
2019-01-19T17:03:15.303Z,94.20
2019-01-19T17:06:11.295Z,94.40
2019-01-19T17:08:54.407Z,94.90
2019-01-19T17:11:40.037Z,95.50
2019-01-19T17:14:51.107Z,95.70
2019-01-19T17:17:55.431Z,95.90
2019-01-19T17:20:58.240Z,95.90
2019-01-19T17:23:51.207Z,96.00
2019-01-19T17:26:38.204Z,96.60
2019-01-19T17:29:31.871Z,96.80
2019-01-19T17:32:30.459Z,96.80
2019-01-19T17:35:26.698Z,97.00
2019-01-19T17:38:28.475Z,97.20
2019-01-19T17:41:18.331Z,97.40
2019-01-19T17:44:26.595Z,97.70
2019-01-19T17:47:19.867Z,98.10
2019-01-19T17:50:00.182Z,98.00
2019-01-19T17:53:24.254Z,98.20
2019-01-19T17:56:29.495Z,98.20
2019-01-19T17:59:25.807Z,98.30
2019-01-19T18:02:44.174Z,98.90
2019-01-19T18:05:49.592Z,98.20
2019-01-19T18:09:00.228Z,98.40
2019-01-19T18:11:50.719Z,98.30
2019-01-19T18:15:19.735Z,98.30
2019-01-19T18:18:27.359Z,98.20
2019-01-19T18:21:31.802Z,98.20
2019-01-19T18:24:26.041Z,98.30
2019-01-19T18:27:32.356Z,98.30
2019-01-19T18:30:29.107Z,98.20
2019-01-19T18:33:02.479Z,98.10
2019-01-19T18:36:04.050Z,98.00
2019-01-19T18:39:31.252Z,97.90
2019-01-19T18:42:39.147Z,97.90
2019-01-19T18:45:46.357Z,97.80
2019-01-19T18:48:33.848Z,97.90
2019-01-19T18:51:09.336Z,97.90
2019-01-19T18:54:23.219Z,98.00
2019-01-19T18:57:40.491Z,98.10
2019-01-19T19:00:39.566Z,98.00
2019-01-19T19:03:37.652Z,98.00
2019-01-19T19:06:45.859Z,98.00
2019-01-19T19:09:31.010Z,97.80
2019-01-19T19:12:38.916Z,98.70
2019-01-19T19:15:39.442Z,98.50
2019-01-19T19:18:51.213Z,98.00
2019-01-19T19:21:54.398Z,98.00
2019-01-19T19:25:04.399Z,98.20
2019-01-19T19:28:04.219Z,98.20
2019-01-19T19:31:04.619Z,97.60
2019-01-19T19:33:47.551Z,97.10
2019-01-19T19:37:02.395Z,96.50
2019-01-19T19:40:00.418Z,96.30
2019-01-19T19:42:46.050Z,96.20
2019-01-19T19:45:44.255Z,96.20
2019-01-19T19:48:22.209Z,95.90
2019-01-19T19:51:31.371Z,95.60
2019-01-19T19:53:58.307Z,95.60
2019-01-19T19:56:24.328Z,95.50
2019-01-19T19:58:51.171Z,95.50
2019-01-19T20:01:17.963Z,95.40
2019-01-19T20:03:44.871Z,95.30
2019-01-19T20:06:11.651Z,95.20
2019-01-19T20:08:38.391Z,95.50
2019-01-19T20:11:05.146Z,95.50
2019-01-19T20:13:32.017Z,95.70
2019-01-19T20:15:58.862Z,95.60
2019-01-19T20:18:25.742Z,95.70
2019-01-19T20:20:52.523Z,95.50
2019-01-19T20:23:19.999Z,95.60
2019-01-19T20:25:46.847Z,95.60
2019-01-19T20:28:13.767Z,95.70
2019-01-19T20:30:40.726Z,95.40
2019-01-19T20:33:07.659Z,95.30
2019-01-19T20:35:34.618Z,95.30
2019-01-19T20:38:01.635Z,95.30
2019-01-19T20:40:28.479Z,95.60
2019-01-19T20:42:55.341Z,95.50
2019-01-19T20:45:22.404Z,95.90
2019-01-19T20:47:49.285Z,95.90
2019-01-19T20:50:16.143Z,96.40
2019-01-19T20:52:43.159Z,96.40
2019-01-19T20:55:10.215Z,96.50
2019-01-19T20:57:37.211Z,96.60
2019-01-19T21:00:08.363Z,96.50
2019-01-19T21:02:35.102Z,96.50
2019-01-19T21:05:01.949Z,96.50
2019-01-19T21:07:28.838Z,96.20
2019-01-19T21:09:55.797Z,96.30
2019-01-19T21:12:22.783Z,96.40
2019-01-19T21:14:49.523Z,96.40
2019-01-19T21:17:16.399Z,96.20
2019-01-19T21:19:43.393Z,96.10
2019-01-19T21:22:10.155Z,96.00
2019-01-19T21:24:37.051Z,96.00
2019-01-19T21:27:03.947Z,96.00
2019-01-19T21:29:30.679Z,95.90
2019-01-19T21:31:57.753Z,95.70
2019-01-19T21:34:24.633Z,95.60
2019-01-19T21:36:51.954Z,95.60
2019-01-19T21:39:18.722Z,95.70
2019-01-19T21:41:45.595Z,95.70
2019-01-19T21:44:12.463Z,95.70
2019-01-19T21:46:39.223Z,95.70
2019-01-19T21:49:06.236Z,95.70
2019-01-19T21:51:33.108Z,95.70
2019-01-19T21:54:00.155Z,95.70
2019-01-19T21:56:27.100Z,95.60
2019-01-19T21:58:53.974Z,95.60
2019-01-19T22:01:21.695Z,95.50
2019-01-19T22:03:49.078Z,95.50
2019-01-19T22:06:15.924Z,95.50
2019-01-19T22:08:42.803Z,95.50
2019-01-19T22:11:09.614Z,95.60
2019-01-19T22:13:36.688Z,95.50
2019-01-19T22:16:03.639Z,95.50
2019-01-19T22:18:30.693Z,95.30
2019-01-19T22:20:57.775Z,95.40
2019-01-19T22:23:24.811Z,95.50
2019-01-19T22:26:08.298Z,95.80
2019-01-19T22:28:38.765Z,95.50
2019-01-19T22:31:11.922Z,95.80
2019-01-19T22:33:40.505Z,95.80
2019-01-19T22:36:08.629Z,95.70
2019-01-19T22:38:37.057Z,95.60
2019-01-19T22:41:05.181Z,95.40
2019-01-19T22:43:35.675Z,95.40
2019-01-19T22:46:03.840Z,95.50
2019-01-19T22:48:32.609Z,95.40
2019-01-19T22:51:11.620Z,95.40
2019-01-19T22:53:47.044Z,95.40
2019-01-19T22:56:14.312Z,95.40
2019-01-19T22:58:41.751Z,95.40
2019-01-19T23:01:33.715Z,95.40
2019-01-19T23:04:00.741Z,95.50
2019-01-19T23:06:27.791Z,95.60
2019-01-19T23:08:54.871Z,95.60
2019-01-19T23:11:22.113Z,95.70
2019-01-19T23:13:48.979Z,95.60
2019-01-19T23:16:15.832Z,95.60
2019-01-19T23:18:42.723Z,95.70
2019-01-19T23:21:09.791Z,95.70
2019-01-19T23:23:36.796Z,95.70
2019-01-19T23:26:03.923Z,95.50
2019-01-19T23:28:31.894Z,95.60
2019-01-19T23:30:58.994Z,95.40
2019-01-19T23:33:25.883Z,95.50
2019-01-19T23:35:52.743Z,95.40
2019-01-19T23:38:19.595Z,95.40
2019-01-19T23:40:46.732Z,95.50
2019-01-19T23:43:13.956Z,95.70
2019-01-19T23:45:40.974Z,95.40
2019-01-19T23:48:07.965Z,95.40
2019-01-19T23:50:35.039Z,95.40
2019-01-19T23:53:01.765Z,95.80
2019-01-19T23:55:28.645Z,95.60
2019-01-19T23:57:55.727Z,95.60
